Ascot, Australia

1:31 PM AWST on July 28, 2017 (GMT +0800)
Bayswater, WA | | Change Station

Elev 72 ft 31.93 °S, 115.92 °E | Updated 19 seconds ago

Mostly Cloudy
Mostly Cloudy
62.5 °F
Feels Like 62.5 °F
N
20.6
Wind Variable Wind from West

Today
High -- | Low -- °F
--% Chance of Precip.
Yesterday
High -- | Low -- °F
Precip. -- in
Pressure 29.80 in
Visibility 6.2 miles
Clouds Scattered Clouds 2400 ft
Mostly Cloudy 4500 ft
Dew Point 51 °F
Humidity 66%
Rainfall 0.36 in
Snow Depth Not available.
7:08 AM 5:37 PM
Waxing Crescent, 27% visible
SPECI YPPH 280500Z 31016KT 9999 SCT024 BKN045 15/12 Q1009 FM0510 28018G30KT 9999 -SHRA SCT035 INTER 0500/0800 27025G40KT 4000 SHRA SCT015
Pressure 29.80 in
Visibility 6.2 miles
Clouds Scattered Clouds 2400 ft
Mostly Cloudy 4500 ft
Dew Point 51 °F
Humidity 66%
Rainfall 0.36 in
Snow Depth Not available.
7:08 AM 5:37 PM
Waxing Crescent, 27% visible
SPECI YPPH 280500Z 31016KT 9999 SCT024 BKN045 15/12 Q1009 FM0510 28018G30KT 9999 -SHRA SCT035 INTER 0500/0800 27025G40KT 4000 SHRA SCT015

Get Severe Weather Alerts

Thanks for signing up!

Be on the lookout for a verification email in your inbox.

You'll start receiving the daily forecast at 6 AM.

×

10-Day Weather Forecast

×

Almanac

Astronomy

Jul. 28, 2017 Rise Set
Actual Time
Civil Twilight
Nautical Twilight
Astronomical Twilight
Moon
Length of Visible Light
Length of Day
Tomorrow will be .
, % of the Moon is Illuminated

Today's Extremes

Country Highs Country Lows

Community

WunderPhotos

Category 6

Welcome to Category 6. This is the collective home for Weather Underground's featured writeups by Dr. Jeff Masters (right), Bob Henson (left), Chris Burt, and other regular contributors.

Nearby

Air Quality

  Air Quality AQ Index Pollutant
Not available.

Snow Depth

Station Depth Elevation

Earthquake Activity

City Distance Mag. Time & Date
Minimum magnitude displayed is 2.5.

Coastal Water Temperatures

Place Temperature

Stations

Nearby Weather Stations

Station Location Temp. Windchill Dew Point Humidity Wind Precip. Elev Updated Type